sensor_id;sensor_type;location;lat;lon;timestamp;temperature;humidity
76426;DHT22;65258;42.680;23.266;2022-12-10T00:00:16;8.72;82.21
76426;DHT22;65258;42.680;23.266;2022-12-10T00:02:41;8.75;82.19
76426;DHT22;65258;42.680;23.266;2022-12-10T00:05:07;8.72;82.00
76426;DHT22;65258;42.680;23.266;2022-12-10T00:07:32;8.72;82.32
76426;DHT22;65258;42.680;23.266;2022-12-10T00:09:58;8.69;82.41
76426;DHT22;65258;42.680;23.266;2022-12-10T00:12:24;8.71;82.39
76426;DHT22;65258;42.680;23.266;2022-12-10T00:14:49;8.78;82.47
76426;DHT22;65258;42.680;23.266;2022-12-10T00:17:15;8.82;82.29
76426;DHT22;65258;42.680;23.266;2022-12-10T00:19:41;8.82;82.21
76426;DHT22;65258;42.680;23.266;2022-12-10T00:22:06;8.78;82.40
76426;DHT22;65258;42.680;23.266;2022-12-10T00:24:32;8.81;82.30
76426;DHT22;65258;42.680;23.266;2022-12-10T00:26:57;8.79;82.40
76426;DHT22;65258;42.680;23.266;2022-12-10T00:29:23;8.72;82.49
76426;DHT22;65258;42.680;23.266;2022-12-10T00:31:49;8.83;81.98
76426;DHT22;65258;42.680;23.266;2022-12-10T00:34:14;8.82;82.11
76426;DHT22;65258;42.680;23.266;2022-12-10T00:36:45;8.81;82.49
76426;DHT22;65258;42.680;23.266;2022-12-10T00:39:17;8.91;82.09
76426;DHT22;65258;42.680;23.266;2022-12-10T00:41:43;8.96;82.12
76426;DHT22;65258;42.680;23.266;2022-12-10T00:44:09;9.01;82.04
76426;DHT22;65258;42.680;23.266;2022-12-10T00:46:35;9.09;81.75
76426;DHT22;65258;42.680;23.266;2022-12-10T00:49:01;9.11;81.69
76426;DHT22;65258;42.680;23.266;2022-12-10T00:51:27;9.05;81.73
76426;DHT22;65258;42.680;23.266;2022-12-10T00:53:55;9.09;81.47
76426;DHT22;65258;42.680;23.266;2022-12-10T00:56:26;9.12;81.54
76426;DHT22;65258;42.680;23.266;2022-12-10T00:58:52;9.19;81.57
76426;DHT22;65258;42.680;23.266;2022-12-10T01:01:29;9.23;81.47
76426;DHT22;65258;42.680;23.266;2022-12-10T01:04:02;9.27;81.60
76426;DHT22;65258;42.680;23.266;2022-12-10T01:06:34;9.09;81.58
76426;DHT22;65258;42.680;23.266;2022-12-10T01:09:04;9.11;82.05
76426;DHT22;65258;42.680;23.266;2022-12-10T01:11:32;9.03;82.67
76426;DHT22;65258;42.680;23.266;2022-12-10T01:13:58;9.06;82.42
76426;DHT22;65258;42.680;23.266;2022-12-10T01:16:24;9.11;82.52
76426;DHT22;65258;42.680;23.266;2022-12-10T01:18:56;9.22;82.48
76426;DHT22;65258;42.680;23.266;2022-12-10T01:21:22;9.15;82.13
76426;DHT22;65258;42.680;23.266;2022-12-10T01:23:49;9.16;82.29
76426;DHT22;65258;42.680;23.266;2022-12-10T01:26:16;9.23;82.07
76426;DHT22;65258;42.680;23.266;2022-12-10T01:28:42;9.26;81.93
76426;DHT22;65258;42.680;23.266;2022-12-10T01:31:14;9.22;82.18
76426;DHT22;65258;42.680;23.266;2022-12-10T01:33:40;9.24;82.25
76426;DHT22;65258;42.680;23.266;2022-12-10T01:36:10;9.24;82.27
76426;DHT22;65258;42.680;23.266;2022-12-10T01:38:36;9.30;82.17
76426;DHT22;65258;42.680;23.266;2022-12-10T01:41:04;9.27;82.10
76426;DHT22;65258;42.680;23.266;2022-12-10T01:46:19;9.40;81.81
76426;DHT22;65258;42.680;23.266;2022-12-10T01:48:45;9.37;81.77
76426;DHT22;65258;42.680;23.266;2022-12-10T01:51:12;9.32;81.81
76426;DHT22;65258;42.680;23.266;2022-12-10T01:53:38;9.33;82.15
76426;DHT22;65258;42.680;23.266;2022-12-10T01:56:04;9.27;82.23
76426;DHT22;65258;42.680;23.266;2022-12-10T01:58:29;9.30;82.19
76426;DHT22;65258;42.680;23.266;2022-12-10T02:06:56;9.53;81.55
76426;DHT22;65258;42.680;23.266;2022-12-10T02:12:23;9.63;80.97
76426;DHT22;65258;42.680;23.266;2022-12-10T02:15:12;9.64;81.01
76426;DHT22;65258;42.680;23.266;2022-12-10T02:17:48;9.67;81.04
76426;DHT22;65258;42.680;23.266;2022-12-10T02:20:21;9.65;81.65
76426;DHT22;65258;42.680;23.266;2022-12-10T02:23:11;9.69;81.74
76426;DHT22;65258;42.680;23.266;2022-12-10T02:28:38;9.71;80.60
76426;DHT22;65258;42.680;23.266;2022-12-10T02:31:08;9.71;80.93
76426;DHT22;65258;42.680;23.266;2022-12-10T02:33:40;9.75;81.02
76426;DHT22;65258;42.680;23.266;2022-12-10T02:36:09;9.75;80.63
76426;DHT22;65258;42.680;23.266;2022-12-10T02:38:37;9.71;80.72
76426;DHT22;65258;42.680;23.266;2022-12-10T02:41:07;9.71;80.89
76426;DHT22;65258;42.680;23.266;2022-12-10T02:43:34;9.71;81.05
76426;DHT22;65258;42.680;23.266;2022-12-10T02:46:04;9.75;81.37
76426;DHT22;65258;42.680;23.266;2022-12-10T02:48:31;9.71;80.97
76426;DHT22;65258;42.680;23.266;2022-12-10T02:50:58;9.75;81.04
76426;DHT22;65258;42.680;23.266;2022-12-10T02:53:23;9.75;81.06
76426;DHT22;65258;42.680;23.266;2022-12-10T02:56:01;9.80;80.67
76426;DHT22;65258;42.680;23.266;2022-12-10T02:58:54;9.80;80.81
76426;DHT22;65258;42.680;23.266;2022-12-10T03:04:24;9.88;81.26
76426;DHT22;65258;42.680;23.266;2022-12-10T03:06:53;9.93;81.13
76426;DHT22;65258;42.680;23.266;2022-12-10T03:09:53;9.84;80.88
76426;DHT22;65258;42.680;23.266;2022-12-10T03:12:28;9.93;81.23
76426;DHT22;65258;42.680;23.266;2022-12-10T03:14:59;9.93;81.46
76426;DHT22;65258;42.680;23.266;2022-12-10T03:17:28;9.87;81.60
76426;DHT22;65258;42.680;23.266;2022-12-10T03:19:57;9.80;81.72
76426;DHT22;65258;42.680;23.266;2022-12-10T03:22:24;9.81;82.05
76426;DHT22;65258;42.680;23.266;2022-12-10T03:24:51;9.81;81.80
76426;DHT22;65258;42.680;23.266;2022-12-10T03:27:19;9.88;81.94
76426;DHT22;65258;42.680;23.266;2022-12-10T03:29:49;9.85;82.07
76426;DHT22;65258;42.680;23.266;2022-12-10T03:32:16;9.73;82.24
76426;DHT22;65258;42.680;23.266;2022-12-10T03:34:43;9.75;82.20
76426;DHT22;65258;42.680;23.266;2022-12-10T03:37:10;9.78;82.15
76426;DHT22;65258;42.680;23.266;2022-12-10T03:39:37;9.85;82.02
76426;DHT22;65258;42.680;23.266;2022-12-10T03:42:04;9.69;82.27
76426;DHT22;65258;42.680;23.266;2022-12-10T03:44:32;9.64;82.86
76426;DHT22;65258;42.680;23.266;2022-12-10T03:46:58;9.64;83.16
76426;DHT22;65258;42.680;23.266;2022-12-10T03:49:24;9.77;82.98
76426;DHT22;65258;42.680;23.266;2022-12-10T03:51:50;9.78;82.67
76426;DHT22;65258;42.680;23.266;2022-12-10T03:54:15;9.88;82.67
76426;DHT22;65258;42.680;23.266;2022-12-10T03:56:41;9.93;82.72
76426;DHT22;65258;42.680;23.266;2022-12-10T03:59:06;9.95;82.52
76426;DHT22;65258;42.680;23.266;2022-12-10T04:01:32;9.99;82.42
76426;DHT22;65258;42.680;23.266;2022-12-10T04:03:57;10.07;82.39
76426;DHT22;65258;42.680;23.266;2022-12-10T04:06:23;10.12;82.40
76426;DHT22;65258;42.680;23.266;2022-12-10T04:08:49;10.22;82.43
76426;DHT22;65258;42.680;23.266;2022-12-10T04:11:15;10.29;82.42
76426;DHT22;65258;42.680;23.266;2022-12-10T04:13:41;10.29;82.68
76426;DHT22;65258;42.680;23.266;2022-12-10T04:16:26;10.41;82.40
76426;DHT22;65258;42.680;23.266;2022-12-10T04:18:52;10.50;82.77
76426;DHT22;65258;42.680;23.266;2022-12-10T04:21:17;10.60;82.17
76426;DHT22;65258;42.680;23.266;2022-12-10T04:24:02;10.65;81.98
76426;DHT22;65258;42.680;23.266;2022-12-10T04:26:46;10.70;81.93
76426;DHT22;65258;42.680;23.266;2022-12-10T04:29:23;10.72;81.86
76426;DHT22;65258;42.680;23.266;2022-12-10T04:31:49;10.73;81.66
76426;DHT22;65258;42.680;23.266;2022-12-10T04:34:15;10.73;80.46
76426;DHT22;65258;42.680;23.266;2022-12-10T04:36:40;10.76;80.45
76426;DHT22;65258;42.680;23.266;2022-12-10T04:39:06;10.83;80.39
76426;DHT22;65258;42.680;23.266;2022-12-10T04:41:32;10.87;80.53
76426;DHT22;65258;42.680;23.266;2022-12-10T04:43:57;10.89;80.64
76426;DHT22;65258;42.680;23.266;2022-12-10T04:46:23;10.87;80.50
76426;DHT22;65258;42.680;23.266;2022-12-10T04:48:49;10.90;80.69
76426;DHT22;65258;42.680;23.266;2022-12-10T04:51:14;10.84;80.96
76426;DHT22;65258;42.680;23.266;2022-12-10T04:53:40;10.89;80.87
76426;DHT22;65258;42.680;23.266;2022-12-10T04:56:06;10.79;81.30
76426;DHT22;65258;42.680;23.266;2022-12-10T04:58:32;10.83;81.31
76426;DHT22;65258;42.680;23.266;2022-12-10T05:01:07;10.80;81.34
76426;DHT22;65258;42.680;23.266;2022-12-10T05:03:34;10.80;81.44
76426;DHT22;65258;42.680;23.266;2022-12-10T05:06:05;10.86;81.20
76426;DHT22;65258;42.680;23.266;2022-12-10T05:08:31;10.83;81.36
76426;DHT22;65258;42.680;23.266;2022-12-10T05:11:02;10.81;81.35
76426;DHT22;65258;42.680;23.266;2022-12-10T05:13:27;10.81;81.43
76426;DHT22;65258;42.680;23.266;2022-12-10T05:15:53;10.77;81.53
76426;DHT22;65258;42.680;23.266;2022-12-10T05:18:19;10.76;81.69
76426;DHT22;65258;42.680;23.266;2022-12-10T05:20:44;10.79;81.46
76426;DHT22;65258;42.680;23.266;2022-12-10T05:23:10;10.80;81.56
76426;DHT22;65258;42.680;23.266;2022-12-10T05:26:08;10.76;81.79
76426;DHT22;65258;42.680;23.266;2022-12-10T05:28:42;10.76;81.67
76426;DHT22;65258;42.680;23.266;2022-12-10T05:31:17;10.75;81.60
76426;DHT22;65258;42.680;23.266;2022-12-10T05:33:43;10.70;81.86
76426;DHT22;65258;42.680;23.266;2022-12-10T05:36:11;10.68;81.83
76426;DHT22;65258;42.680;23.266;2022-12-10T05:38:38;10.59;82.26
76426;DHT22;65258;42.680;23.266;2022-12-10T05:41:06;10.56;82.29
76426;DHT22;65258;42.680;23.266;2022-12-10T05:43:31;10.56;82.24
76426;DHT22;65258;42.680;23.266;2022-12-10T05:46:05;10.58;82.29
76426;DHT22;65258;42.680;23.266;2022-12-10T05:48:33;10.66;82.07
76426;DHT22;65258;42.680;23.266;2022-12-10T05:51:04;10.63;82.21
76426;DHT22;65258;42.680;23.266;2022-12-10T05:53:29;10.58;82.43
76426;DHT22;65258;42.680;23.266;2022-12-10T05:56:10;10.60;82.36
76426;DHT22;65258;42.680;23.266;2022-12-10T05:58:36;10.66;82.36
76426;DHT22;65258;42.680;23.266;2022-12-10T06:01:10;10.56;82.47
76426;DHT22;65258;42.680;23.266;2022-12-10T06:03:40;10.55;82.92
76426;DHT22;65258;42.680;23.266;2022-12-10T06:06:06;10.55;83.00
76426;DHT22;65258;42.680;23.266;2022-12-10T06:08:33;10.58;82.89
76426;DHT22;65258;42.680;23.266;2022-12-10T06:11:03;10.58;82.85
76426;DHT22;65258;42.680;23.266;2022-12-10T06:13:29;10.63;82.73
76426;DHT22;65258;42.680;23.266;2022-12-10T06:15:54;10.70;82.67
76426;DHT22;65258;42.680;23.266;2022-12-10T06:18:20;10.76;82.62
76426;DHT22;65258;42.680;23.266;2022-12-10T06:20:46;10.80;82.42
76426;DHT22;65258;42.680;23.266;2022-12-10T06:23:11;10.76;82.58
76426;DHT22;65258;42.680;23.266;2022-12-10T06:25:38;10.77;82.69
76426;DHT22;65258;42.680;23.266;2022-12-10T06:28:04;10.79;82.64
76426;DHT22;65258;42.680;23.266;2022-12-10T06:30:30;10.79;82.62
76426;DHT22;65258;42.680;23.266;2022-12-10T06:32:55;10.62;83.20
76426;DHT22;65258;42.680;23.266;2022-12-10T06:35:21;10.55;83.59
76426;DHT22;65258;42.680;23.266;2022-12-10T06:37:48;10.52;83.64
76426;DHT22;65258;42.680;23.266;2022-12-10T06:40:14;10.50;84.05
76426;DHT22;65258;42.680;23.266;2022-12-10T06:42:39;10.58;84.24
76426;DHT22;65258;42.680;23.266;2022-12-10T06:45:06;10.65;84.01
76426;DHT22;65258;42.680;23.266;2022-12-10T06:47:32;10.69;83.91
76426;DHT22;65258;42.680;23.266;2022-12-10T06:49:57;10.76;83.88
76426;DHT22;65258;42.680;23.266;2022-12-10T06:52:23;10.84;83.80
76426;DHT22;65258;42.680;23.266;2022-12-10T06:54:48;10.90;83.63
76426;DHT22;65258;42.680;23.266;2022-12-10T06:57:15;10.96;83.78
76426;DHT22;65258;42.680;23.266;2022-12-10T06:59:41;10.99;83.72
76426;DHT22;65258;42.680;23.266;2022-12-10T07:02:08;10.97;83.33
76426;DHT22;65258;42.680;23.266;2022-12-10T07:04:34;11.11;83.43
76426;DHT22;65258;42.680;23.266;2022-12-10T07:07:00;11.20;82.98
76426;DHT22;65258;42.680;23.266;2022-12-10T07:09:25;11.26;82.87
76426;DHT22;65258;42.680;23.266;2022-12-10T07:11:51;11.21;82.99
76426;DHT22;65258;42.680;23.266;2022-12-10T07:14:16;11.20;82.82
76426;DHT22;65258;42.680;23.266;2022-12-10T07:16:42;11.23;82.98
76426;DHT22;65258;42.680;23.266;2022-12-10T07:19:10;11.30;82.98
76426;DHT22;65258;42.680;23.266;2022-12-10T07:21:38;11.40;82.99
76426;DHT22;65258;42.680;23.266;2022-12-10T07:24:07;11.37;82.63
76426;DHT22;65258;42.680;23.266;2022-12-10T07:26:35;11.28;82.65
76426;DHT22;65258;42.680;23.266;2022-12-10T07:29:02;11.34;81.86
76426;DHT22;65258;42.680;23.266;2022-12-10T07:31:28;11.44;82.44
76426;DHT22;65258;42.680;23.266;2022-12-10T07:33:54;11.54;82.27
76426;DHT22;65258;42.680;23.266;2022-12-10T07:36:23;11.55;81.51
76426;DHT22;65258;42.680;23.266;2022-12-10T07:38:49;11.61;81.84
76426;DHT22;65258;42.680;23.266;2022-12-10T07:41:15;11.70;81.77
76426;DHT22;65258;42.680;23.266;2022-12-10T07:43:43;11.81;81.21
76426;DHT22;65258;42.680;23.266;2022-12-10T07:48:40;11.93;81.15
76426;DHT22;65258;42.680;23.266;2022-12-10T07:51:07;12.05;81.50
76426;DHT22;65258;42.680;23.266;2022-12-10T07:53:33;12.13;81.06
76426;DHT22;65258;42.680;23.266;2022-12-10T07:55:58;12.23;80.21
76426;DHT22;65258;42.680;23.266;2022-12-10T07:58:24;12.30;80.11
76426;DHT22;65258;42.680;23.266;2022-12-10T08:00:50;12.39;79.93
76426;DHT22;65258;42.680;23.266;2022-12-10T08:03:16;12.43;79.64
76426;DHT22;65258;42.680;23.266;2022-12-10T08:05:41;12.53;79.80
76426;DHT22;65258;42.680;23.266;2022-12-10T08:08:07;12.57;78.50
76426;DHT22;65258;42.680;23.266;2022-12-10T08:10:34;12.60;78.25
76426;DHT22;65258;42.680;23.266;2022-12-10T08:12:59;12.68;76.86
76426;DHT22;65258;42.680;23.266;2022-12-10T08:15:25;12.80;77.23
76426;DHT22;65258;42.680;23.266;2022-12-10T08:17:50;12.80;77.31
76426;DHT22;65258;42.680;23.266;2022-12-10T08:20:16;12.95;78.00
76426;DHT22;65258;42.680;23.266;2022-12-10T08:22:41;13.01;77.16
76426;DHT22;65258;42.680;23.266;2022-12-10T08:25:07;13.07;76.40
76426;DHT22;65258;42.680;23.266;2022-12-10T08:27:33;13.18;77.09
76426;DHT22;65258;42.680;23.266;2022-12-10T08:29:58;13.21;75.38
76426;DHT22;65258;42.680;23.266;2022-12-10T08:32:24;13.27;75.83
76426;DHT22;65258;42.680;23.266;2022-12-10T08:34:49;13.24;75.55
76426;DHT22;65258;42.680;23.266;2022-12-10T08:37:15;13.21;75.53
76426;DHT22;65258;42.680;23.266;2022-12-10T08:39:40;13.10;75.29
76426;DHT22;65258;42.680;23.266;2022-12-10T08:42:07;13.05;76.38
76426;DHT22;65258;42.680;23.266;2022-12-10T08:44:32;12.94;75.65
76426;DHT22;65258;42.680;23.266;2022-12-10T08:46:58;13.11;76.12
76426;DHT22;65258;42.680;23.266;2022-12-10T08:49:23;13.39;75.92
76426;DHT22;65258;42.680;23.266;2022-12-10T08:51:49;13.76;74.34
76426;DHT22;65258;42.680;23.266;2022-12-10T08:54:14;13.97;74.06
76426;DHT22;65258;42.680;23.266;2022-12-10T08:56:40;14.27;74.44
76426;DHT22;65258;42.680;23.266;2022-12-10T08:59:06;14.50;71.59
76426;DHT22;65258;42.680;23.266;2022-12-10T09:01:32;14.61;72.68
76426;DHT22;65258;42.680;23.266;2022-12-10T09:03:57;14.67;71.85
76426;DHT22;65258;42.680;23.266;2022-12-10T09:06:24;14.78;70.81
76426;DHT22;65258;42.680;23.266;2022-12-10T09:08:49;14.71;70.38
76426;DHT22;65258;42.680;23.266;2022-12-10T09:11:22;14.67;70.69
76426;DHT22;65258;42.680;23.266;2022-12-10T09:13:48;14.64;70.57
76426;DHT22;65258;42.680;23.266;2022-12-10T09:16:14;14.52;70.95
76426;DHT22;65258;42.680;23.266;2022-12-10T09:18:40;14.50;72.34
76426;DHT22;65258;42.680;23.266;2022-12-10T09:21:07;14.41;71.74
76426;DHT22;65258;42.680;23.266;2022-12-10T09:23:33;14.50;72.82
76426;DHT22;65258;42.680;23.266;2022-12-10T09:26:00;14.50;71.02
76426;DHT22;65258;42.680;23.266;2022-12-10T09:28:26;14.40;71.47
76426;DHT22;65258;42.680;23.266;2022-12-10T09:30:58;14.29;71.66
76426;DHT22;65258;42.680;23.266;2022-12-10T09:33:25;14.41;72.50
76426;DHT22;65258;42.680;23.266;2022-12-10T09:35:51;14.51;71.47
76426;DHT22;65258;42.680;23.266;2022-12-10T09:38:17;14.57;70.13
76426;DHT22;65258;42.680;23.266;2022-12-10T09:41:03;14.44;70.84
76426;DHT22;65258;42.680;23.266;2022-12-10T09:46:13;14.42;72.13
76426;DHT22;65258;42.680;23.266;2022-12-10T09:51:34;14.71;70.95
76426;DHT22;65258;42.680;23.266;2022-12-10T09:54:02;14.78;70.15
76426;DHT22;65258;42.680;23.266;2022-12-10T09:56:32;14.84;71.24
76426;DHT22;65258;42.680;23.266;2022-12-10T09:59:02;14.85;70.27
76426;DHT22;65258;42.680;23.266;2022-12-10T10:01:30;15.03;70.43
76426;DHT22;65258;42.680;23.266;2022-12-10T10:03:56;15.31;70.26
76426;DHT22;65258;42.680;23.266;2022-12-10T10:06:23;15.47;69.86
76426;DHT22;65258;42.680;23.266;2022-12-10T10:08:55;15.67;68.98
76426;DHT22;65258;42.680;23.266;2022-12-10T10:11:25;15.84;67.93
76426;DHT22;65258;42.680;23.266;2022-12-10T10:14:01;15.97;67.61
76426;DHT22;65258;42.680;23.266;2022-12-10T10:16:39;16.04;66.91
76426;DHT22;65258;42.680;23.266;2022-12-10T10:19:27;16.07;66.52
76426;DHT22;65258;42.680;23.266;2022-12-10T10:21:54;16.10;66.19
76426;DHT22;65258;42.680;23.266;2022-12-10T10:24:22;16.10;65.98
76426;DHT22;65258;42.680;23.266;2022-12-10T10:26:52;16.08;65.37
76426;DHT22;65258;42.680;23.266;2022-12-10T10:29:20;16.18;64.90
76426;DHT22;65258;42.680;23.266;2022-12-10T10:31:47;16.11;64.79
76426;DHT22;65258;42.680;23.266;2022-12-10T10:34:17;16.20;65.94
76426;DHT22;65258;42.680;23.266;2022-12-10T10:36:42;16.32;66.03
76426;DHT22;65258;42.680;23.266;2022-12-10T10:39:11;16.45;66.38
76426;DHT22;65258;42.680;23.266;2022-12-10T10:41:42;16.61;64.78
76426;DHT22;65258;42.680;23.266;2022-12-10T10:44:20;16.59;63.66
76426;DHT22;65258;42.680;23.266;2022-12-10T10:46:49;16.66;64.93
76426;DHT22;65258;42.680;23.266;2022-12-10T10:49:27;16.61;62.94
76426;DHT22;65258;42.680;23.266;2022-12-10T10:52:04;16.38;63.49
76426;DHT22;65258;42.680;23.266;2022-12-10T10:54:48;16.37;64.63
76426;DHT22;65258;42.680;23.266;2022-12-10T10:57:24;16.38;63.28
76426;DHT22;65258;42.680;23.266;2022-12-10T10:59:56;16.42;64.22
76426;DHT22;65258;42.680;23.266;2022-12-10T11:02:41;16.44;63.59
76426;DHT22;65258;42.680;23.266;2022-12-10T11:05:33;16.52;63.79
76426;DHT22;65258;42.680;23.266;2022-12-10T11:08:18;16.44;64.67
76426;DHT22;65258;42.680;23.266;2022-12-10T11:10:59;16.49;64.04
76426;DHT22;65258;42.680;23.266;2022-12-10T11:13:33;16.25;63.58
76426;DHT22;65258;42.680;23.266;2022-12-10T11:18:39;16.18;64.81
76426;DHT22;65258;42.680;23.266;2022-12-10T11:21:25;16.14;65.27
76426;DHT22;65258;42.680;23.266;2022-12-10T11:23:54;16.20;64.64
76426;DHT22;65258;42.680;23.266;2022-12-10T11:26:55;16.18;65.76
76426;DHT22;65258;42.680;23.266;2022-12-10T11:32:42;16.40;65.17
76426;DHT22;65258;42.680;23.266;2022-12-10T11:38:30;16.49;64.39
76426;DHT22;65258;42.680;23.266;2022-12-10T11:44:16;16.42;64.09
76426;DHT22;65258;42.680;23.266;2022-12-10T11:52:45;16.07;65.28
76426;DHT22;65258;42.680;23.266;2022-12-10T12:03:55;15.97;65.37
76426;DHT22;65258;42.680;23.266;2022-12-10T12:14:27;15.60;66.26
76426;DHT22;65258;42.680;23.266;2022-12-10T12:19:40;15.64;65.65
76426;DHT22;65258;42.680;23.266;2022-12-10T12:22:26;15.53;66.04
76426;DHT22;65258;42.680;23.266;2022-12-10T12:24:57;15.49;67.01
76426;DHT22;65258;42.680;23.266;2022-12-10T12:28:14;15.42;67.00
76426;DHT22;65258;42.680;23.266;2022-12-10T12:30:21;15.35;67.61
76426;DHT22;65258;42.680;23.266;2022-12-10T12:36:03;15.42;68.03
76426;DHT22;65258;42.680;23.266;2022-12-10T12:38:41;15.47;67.74
76426;DHT22;65258;42.680;23.266;2022-12-10T12:41:34;15.46;67.50
76426;DHT22;65258;42.680;23.266;2022-12-10T12:44:17;15.38;67.75
76426;DHT22;65258;42.680;23.266;2022-12-10T12:46:45;15.35;68.14
76426;DHT22;65258;42.680;23.266;2022-12-10T12:49:37;15.26;68.08
76426;DHT22;65258;42.680;23.266;2022-12-10T12:54:56;15.40;68.35
76426;DHT22;65258;42.680;23.266;2022-12-10T12:57:55;15.36;67.96
76426;DHT22;65258;42.680;23.266;2022-12-10T13:00:22;15.42;68.35
76426;DHT22;65258;42.680;23.266;2022-12-10T13:05:43;15.33;68.08
76426;DHT22;65258;42.680;23.266;2022-12-10T13:13:28;15.44;69.12
76426;DHT22;65258;42.680;23.266;2022-12-10T13:15:54;15.46;69.40
76426;DHT22;65258;42.680;23.266;2022-12-10T13:21:24;15.46;68.36
76426;DHT22;65258;42.680;23.266;2022-12-10T13:23:52;15.43;69.25
76426;DHT22;65258;42.680;23.266;2022-12-10T13:26:28;15.42;69.16
76426;DHT22;65258;42.680;23.266;2022-12-10T13:28:55;15.43;69.68
76426;DHT22;65258;42.680;23.266;2022-12-10T13:31:34;15.42;69.72
76426;DHT22;65258;42.680;23.266;2022-12-10T13:34:05;15.25;69.94
76426;DHT22;65258;42.680;23.266;2022-12-10T13:39:32;14.96;71.20
76426;DHT22;65258;42.680;23.266;2022-12-10T13:50:02;14.78;72.10
76426;DHT22;65258;42.680;23.266;2022-12-10T13:55:39;14.85;72.08
76426;DHT22;65258;42.680;23.266;2022-12-10T14:01:02;14.87;72.16
76426;DHT22;65258;42.680;23.266;2022-12-10T14:06:35;14.85;72.35
76426;DHT22;65258;42.680;23.266;2022-12-10T14:09:11;14.85;72.11
76426;DHT22;65258;42.680;23.266;2022-12-10T14:11:40;14.82;72.37
76426;DHT22;65258;42.680;23.266;2022-12-10T14:14:19;14.88;71.94
76426;DHT22;65258;42.680;23.266;2022-12-10T14:16:46;14.84;71.96
76426;DHT22;65258;42.680;23.266;2022-12-10T14:19:14;14.80;72.09
76426;DHT22;65258;42.680;23.266;2022-12-10T14:21:43;14.78;72.25
76426;DHT22;65258;42.680;23.266;2022-12-10T14:24:37;14.72;72.41
76426;DHT22;65258;42.680;23.266;2022-12-10T14:27:23;14.68;72.34
76426;DHT22;65258;42.680;23.266;2022-12-10T14:29:57;14.60;72.86
76426;DHT22;65258;42.680;23.266;2022-12-10T14:32:36;14.52;73.12
76426;DHT22;65258;42.680;23.266;2022-12-10T14:35:10;14.45;73.15
76426;DHT22;65258;42.680;23.266;2022-12-10T14:37:41;14.36;73.88
76426;DHT22;65258;42.680;23.266;2022-12-10T14:40:08;14.27;73.99
76426;DHT22;65258;42.680;23.266;2022-12-10T14:42:37;14.19;73.90
76426;DHT22;65258;42.680;23.266;2022-12-10T14:45:04;14.14;74.55
76426;DHT22;65258;42.680;23.266;2022-12-10T14:47:38;14.13;74.58
76426;DHT22;65258;42.680;23.266;2022-12-10T14:50:12;14.13;74.59
76426;DHT22;65258;42.680;23.266;2022-12-10T14:52:50;14.10;74.40
76426;DHT22;65258;42.680;23.266;2022-12-10T14:55:19;14.12;74.36
76426;DHT22;65258;42.680;23.266;2022-12-10T14:57:59;14.13;74.30
76426;DHT22;65258;42.680;23.266;2022-12-10T15:00:27;14.13;74.12
76426;DHT22;65258;42.680;23.266;2022-12-10T15:02:56;14.12;74.03
76426;DHT22;65258;42.680;23.266;2022-12-10T15:05:27;14.09;74.17
76426;DHT22;65258;42.680;23.266;2022-12-10T15:08:07;14.03;74.33
76426;DHT22;65258;42.680;23.266;2022-12-10T15:10:44;14.00;74.37
76426;DHT22;65258;42.680;23.266;2022-12-10T15:13:19;13.97;74.22
76426;DHT22;65258;42.680;23.266;2022-12-10T15:15:51;13.93;74.36
76426;DHT22;65258;42.680;23.266;2022-12-10T15:18:20;13.93;74.67
76426;DHT22;65258;42.680;23.266;2022-12-10T15:20:47;13.95;74.75
76426;DHT22;65258;42.680;23.266;2022-12-10T15:25:51;13.90;74.87
76426;DHT22;65258;42.680;23.266;2022-12-10T15:30:57;13.82;75.11
76426;DHT22;65258;42.680;23.266;2022-12-10T15:33:35;13.80;74.81
76426;DHT22;65258;42.680;23.266;2022-12-10T15:36:01;13.83;75.04
76426;DHT22;65258;42.680;23.266;2022-12-10T15:38:27;13.78;75.24
76426;DHT22;65258;42.680;23.266;2022-12-10T15:40:58;13.73;75.12
76426;DHT22;65258;42.680;23.266;2022-12-10T15:43:30;13.73;75.47
76426;DHT22;65258;42.680;23.266;2022-12-10T15:45:57;13.58;75.70
76426;DHT22;65258;42.680;23.266;2022-12-10T15:48:24;13.55;76.02
76426;DHT22;65258;42.680;23.266;2022-12-10T15:50:51;13.48;76.36
76426;DHT22;65258;42.680;23.266;2022-12-10T15:53:25;13.49;76.43
76426;DHT22;65258;42.680;23.266;2022-12-10T15:55:52;13.49;76.37
76426;DHT22;65258;42.680;23.266;2022-12-10T15:58:17;13.51;76.10
76426;DHT22;65258;42.680;23.266;2022-12-10T16:00:43;13.51;76.17
76426;DHT22;65258;42.680;23.266;2022-12-10T16:03:11;13.52;76.04
76426;DHT22;65258;42.680;23.266;2022-12-10T16:05:38;13.54;76.09
76426;DHT22;65258;42.680;23.266;2022-12-10T16:08:22;13.51;76.01
76426;DHT22;65258;42.680;23.266;2022-12-10T16:10:51;13.49;75.99
76426;DHT22;65258;42.680;23.266;2022-12-10T16:13:19;13.54;75.78
76426;DHT22;65258;42.680;23.266;2022-12-10T16:15:54;13.54;75.60
76426;DHT22;65258;42.680;23.266;2022-12-10T16:18:22;13.55;75.70
76426;DHT22;65258;42.680;23.266;2022-12-10T16:20:48;13.45;76.17
76426;DHT22;65258;42.680;23.266;2022-12-10T16:23:14;13.46;76.19
76426;DHT22;65258;42.680;23.266;2022-12-10T16:25:41;13.42;76.32
76426;DHT22;65258;42.680;23.266;2022-12-10T16:28:14;13.42;76.31
76426;DHT22;65258;42.680;23.266;2022-12-10T16:30:48;13.42;76.83
76426;DHT22;65258;42.680;23.266;2022-12-10T16:33:16;13.41;76.90
76426;DHT22;65258;42.680;23.266;2022-12-10T16:35:43;13.41;77.00
76426;DHT22;65258;42.680;23.266;2022-12-10T16:38:09;13.35;77.13
76426;DHT22;65258;42.680;23.266;2022-12-10T16:40:35;13.29;77.52
76426;DHT22;65258;42.680;23.266;2022-12-10T16:43:01;13.29;77.63
76426;DHT22;65258;42.680;23.266;2022-12-10T16:45:29;13.19;77.92
76426;DHT22;65258;42.680;23.266;2022-12-10T16:47:57;13.25;77.96
76426;DHT22;65258;42.680;23.266;2022-12-10T16:50:22;13.19;78.02
76426;DHT22;65258;42.680;23.266;2022-12-10T16:52:48;13.08;78.27
76426;DHT22;65258;42.680;23.266;2022-12-10T16:55:18;12.93;79.05
76426;DHT22;65258;42.680;23.266;2022-12-10T16:57:45;13.01;79.08
76426;DHT22;65258;42.680;23.266;2022-12-10T17:00:15;12.94;79.53
76426;DHT22;65258;42.680;23.266;2022-12-10T17:02:42;12.97;79.49
76426;DHT22;65258;42.680;23.266;2022-12-10T17:05:29;12.98;79.37
76426;DHT22;65258;42.680;23.266;2022-12-10T17:07:56;12.91;79.71
76426;DHT22;65258;42.680;23.266;2022-12-10T17:10:23;12.94;79.67
76426;DHT22;65258;42.680;23.266;2022-12-10T17:13:10;12.94;79.67
76426;DHT22;65258;42.680;23.266;2022-12-10T17:15:37;12.97;79.91
76426;DHT22;65258;42.680;23.266;2022-12-10T17:18:03;12.95;79.91
76426;DHT22;65258;42.680;23.266;2022-12-10T17:20:29;12.85;80.07